Time;durP1;ratioP1;P1;durP2;ratioP2;P2;SDS_P1;SDS_P2;PMS_P1;PMS_P2;Temp;Humidity;BMP_temperature;BMP_pressure;BME280_temperature;BME280_humidity;BME280_pressure;Samples;Min_cycle;Max_cycle;Signal;HPM_P1;HPM_P2
2022/11/18 00:01:23;;;;;;;5.50;5.30;;;9.60;1.00;;;;;;4879564;29;20487;-81
2022/11/18 00:03:53;;;;;;;5.53;5.30;;;9.60;1.00;;;;;;4880344;29;20486;-79
2022/11/18 00:06:23;;;;;;;5.73;5.53;;;9.50;99.90;;;;;;4885446;29;20463;-81
2022/11/18 00:08:52;;;;;;;5.63;5.50;;;9.60;99.90;;;;;;4881447;29;20484;-80
2022/11/18 00:14:18;;;;;;;5.50;5.40;;;9.70;1.00;;;;;;4875440;29;20534;-79
2022/11/18 00:16:49;;;;;;;5.40;5.30;;;9.80;11.90;;;;;;4878347;29;21343;-80
2022/11/18 00:19:19;;;;;;;5.40;5.30;;;9.80;1.00;;;;;;4870350;29;20485;-80
2022/11/18 00:21:47;;;;;;;5.60;5.50;;;9.80;1.00;;;;;;4878813;29;20488;-80
2022/11/18 00:24:16;;;;;;;5.30;5.20;;;9.80;9.50;;;;;;4876747;29;20889;-80
2022/11/18 00:26:44;;;;;;;5.63;5.50;;;9.60;1.00;;;;;;4877885;29;20526;-79
2022/11/18 00:29:12;;;;;;;5.57;5.47;;;9.60;99.90;;;;;;4876297;29;20466;-79
2022/11/18 00:31:41;;;;;;;6.27;5.90;;;9.70;1.00;;;;;;4878049;29;20561;-79
2022/11/18 00:34:12;;;;;;;5.77;5.60;;;9.70;99.90;;;;;;4876074;29;20472;-79
2022/11/18 00:36:42;;;;;;;5.60;5.40;;;9.80;99.90;;;;;;4875895;29;21892;-78
2022/11/18 00:39:11;;;;;;;5.37;5.17;;;9.60;31.20;;;;;;4877255;29;21049;-79
2022/11/18 00:44:25;;;;;;;5.80;5.60;;;9.60;99.90;;;;;;4872155;29;20538;-79
2022/11/18 00:46:53;;;;;;;5.60;5.50;;;9.80;1.00;;;;;;4876772;29;20835;-81
2022/11/18 00:49:22;;;;;;;5.80;5.70;;;9.70;1.00;;;;;;4877829;29;20460;-80
2022/11/18 00:51:51;;;;;;;5.30;5.20;;;9.70;99.90;;;;;;4875448;29;20486;-79
2022/11/18 00:54:19;;;;;;;5.70;5.50;;;9.80;1.00;;;;;;4878712;29;20452;-79
2022/11/18 00:56:47;;;;;;;5.50;5.40;;;9.90;99.90;;;;;;4874714;29;20467;-79
2022/11/18 00:59:16;;;;;;;5.23;5.13;;;9.90;99.90;;;;;;4880735;29;20462;-80
2022/11/18 01:01:44;;;;;;;5.30;5.20;;;9.90;30.10;;;;;;4879058;29;20473;-79
2022/11/18 01:04:12;;;;;;;5.40;5.30;;;9.90;99.90;;;;;;4879601;29;20485;-79
2022/11/18 01:06:41;;;;;;;5.67;5.47;;;9.90;1.00;;;;;;4877667;29;20454;-79
2022/11/18 01:09:10;;;;;;;5.50;5.40;;;9.70;1.00;;;;;;4879423;29;20467;-79
2022/11/18 01:14:38;;;;;;;5.50;5.40;;;9.60;1.00;;;;;;4821055;29;20466;-80
2022/11/18 01:17:07;;;;;;;5.50;5.40;;;9.60;99.90;;;;;;4821329;29;20496;-79
2022/11/18 01:19:35;;;;;;;5.60;5.43;;;9.70;46.90;;;;;;4848024;29;20550;-79
2022/11/18 01:22:03;;;;;;;5.90;5.80;;;9.70;1.00;;;;;;4875233;29;20568;-80
2022/11/18 01:24:34;;;;;;;6.10;6.00;;;9.60;99.90;;;;;;4875140;29;20490;-80
2022/11/18 01:27:02;;;;;;;6.20;6.10;;;9.40;99.90;;;;;;4875459;29;21590;-80
2022/11/18 01:29:30;;;;;;;5.80;5.70;;;9.50;99.90;;;;;;4880313;29;21190;-80
2022/11/18 01:31:58;;;;;;;5.80;5.70;;;9.60;1.00;;;;;;4879254;29;20491;-80
2022/11/18 01:34:46;;;;;;;6.00;5.90;;;9.70;1.00;;;;;;4880699;29;20552;-80
2022/11/18 01:37:14;;;;;;;6.00;5.90;;;9.70;99.90;;;;;;4890694;29;20492;-80
2022/11/18 01:39:44;;;;;;;5.83;5.73;;;9.80;1.00;;;;;;4878963;29;20463;-80
2022/11/18 01:42:15;;;;;;;6.30;6.17;;;9.60;1.20;;;;;;4881336;29;20477;-79
2022/11/18 01:44:58;;;;;;;5.67;5.57;;;9.70;1.00;;;;;;4891096;29;20543;-79
2022/11/18 01:47:31;;;;;;;5.90;5.70;;;9.60;99.90;;;;;;4884266;29;20983;-80
2022/11/18 01:50:00;;;;;;;6.30;6.10;;;9.80;13.40;;;;;;4881106;29;20574;-80
2022/11/18 01:52:29;;;;;;;5.97;5.87;;;9.60;99.90;;;;;;4882044;29;20547;-80
2022/11/18 01:55:03;;;;;;;6.10;6.00;;;9.70;99.90;;;;;;4882823;29;20462;-80
2022/11/18 01:57:32;;;;;;;6.07;5.87;;;9.80;99.90;;;;;;4882393;29;20474;-79
2022/11/18 02:00:02;;;;;;;6.03;5.93;;;9.50;1.00;;;;;;4880534;29;20474;-82
2022/11/18 02:02:32;;;;;;;5.90;5.80;;;9.50;99.90;;;;;;4879951;29;20477;-80
2022/11/18 02:05:02;;;;;;;5.67;5.57;;;9.50;47.20;;;;;;4882795;29;20538;-80
2022/11/18 02:07:33;;;;;;;5.73;5.63;;;9.50;1.00;;;;;;4881608;29;20481;-80
2022/11/18 02:10:05;;;;;;;6.00;5.90;;;9.60;99.90;;;;;;4884014;29;20463;-79
2022/11/18 02:12:33;;;;;;;5.90;5.80;;;9.60;99.90;;;;;;4883048;29;20483;-80
2022/11/18 02:15:03;;;;;;;6.13;6.03;;;9.60;1.00;;;;;;4883675;29;20601;-78
2022/11/18 02:17:43;;;;;;;6.00;5.90;;;9.60;99.90;;;;;;4881619;29;21290;-80
2022/11/18 02:20:28;;;;;;;6.07;5.97;;;9.60;1.00;;;;;;4881296;29;20546;-79
2022/11/18 02:23:32;;;;;;;5.90;5.80;;;9.50;99.90;;;;;;4881812;29;20459;-78
2022/11/18 02:26:36;;;;;;;5.80;5.70;;;9.50;1.00;;;;;;4877664;29;20489;-79
2022/11/18 02:29:08;;;;;;;6.40;6.30;;;9.40;99.90;;;;;;4867326;29;20485;-79
2022/11/18 02:31:45;;;;;;;5.97;5.87;;;9.50;99.90;;;;;;4885677;29;20501;-79
2022/11/18 02:34:21;;;;;;;5.97;5.87;;;9.50;19.40;;;;;;4882207;29;20463;-79
2022/11/18 02:36:55;;;;;;;5.97;5.87;;;9.60;1.00;;;;;;4879214;29;20527;-80
2022/11/18 02:39:29;;;;;;;6.00;5.90;;;9.60;1.00;;;;;;4882428;29;20531;-79
2022/11/18 02:42:01;;;;;;;6.67;6.50;;;9.60;1.00;;;;;;4881167;29;20551;-79
2022/11/18 02:44:32;;;;;;;6.10;6.00;;;9.50;1.00;;;;;;4884074;29;20892;-79
2022/11/18 02:47:05;;;;;;;6.20;6.10;;;9.50;1.00;;;;;;4882576;29;20459;-80
2022/11/18 02:49:38;;;;;;;5.90;5.80;;;9.50;99.90;;;;;;4874704;29;20465;-79
2022/11/18 02:52:08;;;;;;;6.27;6.17;;;9.60;1.00;;;;;;4877825;29;20478;-79
2022/11/18 02:54:40;;;;;;;6.10;6.00;;;9.60;1.00;;;;;;4894873;29;20998;-79
2022/11/18 02:57:09;;;;;;;5.97;5.83;;;9.60;1.00;;;;;;4880901;29;20476;-79
2022/11/18 02:59:38;;;;;;;6.33;6.23;;;9.50;99.90;;;;;;4881900;29;20463;-79
2022/11/18 03:02:07;;;;;;;6.10;6.00;;;9.40;99.90;;;;;;4878257;29;20494;-79
2022/11/18 03:04:35;;;;;;;6.10;6.00;;;9.50;75.40;;;;;;4879356;29;20581;-80
2022/11/18 03:07:11;;;;;;;6.40;6.30;;;9.40;99.90;;;;;;4887277;29;20467;-79
2022/11/18 03:09:42;;;;;;;6.50;6.40;;;9.50;30.90;;;;;;4881740;29;20483;-79
2022/11/18 03:12:17;;;;;;;6.67;6.57;;;9.40;1.00;;;;;;4879740;29;20498;-79
2022/11/18 03:14:56;;;;;;;6.60;6.50;;;9.40;99.90;;;;;;4880725;29;20459;-79
2022/11/18 03:17:33;;;;;;;6.23;6.13;;;9.40;99.90;;;;;;4882318;29;20468;-79
2022/11/18 03:20:12;;;;;;;6.30;6.20;;;9.40;99.90;;;;;;4883902;29;20480;-79
2022/11/18 03:22:44;;;;;;;6.40;6.30;;;9.50;99.90;;;;;;4883340;29;20233;-79
2022/11/18 03:25:19;;;;;;;6.60;6.40;;;9.50;74.10;;;;;;4882008;29;20475;-79
2022/11/18 03:27:54;;;;;;;6.50;6.40;;;9.40;99.90;;;;;;4880270;29;20474;-80
2022/11/18 03:30:26;;;;;;;6.90;6.70;;;9.40;99.90;;;;;;4879645;29;20466;-79
2022/11/18 03:33:08;;;;;;;7.03;6.87;;;9.40;99.90;;;;;;4878713;29;20472;-79
2022/11/18 03:35:40;;;;;;;6.83;6.73;;;9.40;1.00;;;;;;4881571;29;20504;-79
2022/11/18 03:38:13;;;;;;;7.10;6.90;;;9.40;1.00;;;;;;4876883;29;20477;-79
2022/11/18 03:40:48;;;;;;;6.87;6.77;;;9.40;1.00;;;;;;4883579;29;20560;-78
2022/11/18 03:43:20;;;;;;;7.40;7.30;;;9.50;1.00;;;;;;4880823;29;20923;-78
2022/11/18 03:45:53;;;;;;;7.20;7.10;;;9.40;1.00;;;;;;4878460;29;20524;-78
2022/11/18 03:48:26;;;;;;;7.10;6.90;;;9.30;1.00;;;;;;4878681;29;21187;-78
2022/11/18 03:50:59;;;;;;;7.23;7.13;;;9.40;1.00;;;;;;4879649;29;20881;-78
2022/11/18 03:53:32;;;;;;;7.00;6.90;;;9.40;1.00;;;;;;4881181;29;20492;-79
2022/11/18 03:56:10;;;;;;;6.90;6.77;;;9.50;1.00;;;;;;4878941;29;21028;-80
2022/11/18 03:58:52;;;;;;;6.50;6.40;;;9.30;1.00;;;;;;4880356;29;21586;-79
2022/11/18 04:01:26;;;;;;;6.70;6.60;;;9.40;1.00;;;;;;4878716;29;20499;-80
2022/11/18 04:03:54;;;;;;;6.97;6.80;;;9.50;1.00;;;;;;4880443;29;20955;-79
2022/11/18 04:06:30;;;;;;;6.63;6.53;;;9.40;1.00;;;;;;4876571;29;20490;-79
2022/11/18 04:09:03;;;;;;;6.30;6.20;;;9.30;1.00;;;;;;4877806;29;20571;-80
2022/11/18 04:14:20;;;;;;;6.10;6.00;;;9.50;99.90;;;;;;4866307;29;20829;-80
2022/11/18 04:16:52;;;;;;;6.00;5.90;;;9.50;90.40;;;;;;4880579;29;20530;-80
2022/11/18 04:19:21;;;;;;;6.10;6.00;;;9.60;99.90;;;;;;4879186;29;20454;-80
2022/11/18 04:21:50;;;;;;;5.80;5.70;;;9.50;99.90;;;;;;4880558;29;20488;-80
2022/11/18 04:24:18;;;;;;;5.60;5.50;;;9.40;99.90;;;;;;4883312;29;20469;-79
2022/11/18 04:26:46;;;;;;;5.50;5.40;;;9.30;1.00;;;;;;4877520;29;20483;-78
2022/11/18 04:29:14;;;;;;;5.23;5.13;;;9.30;99.90;;;;;;4876311;29;20458;-79
2022/11/18 04:31:43;;;;;;;5.60;5.50;;;9.30;1.00;;;;;;4881191;29;20486;-79
2022/11/18 04:34:13;;;;;;;5.30;5.20;;;9.30;99.90;;;;;;4876801;29;20499;-79
2022/11/18 04:36:41;;;;;;;5.40;5.30;;;9.20;65.30;;;;;;4873433;29;20450;-79
2022/11/18 04:39:09;;;;;;;5.43;5.33;;;9.10;99.90;;;;;;4878433;29;20510;-79
2022/11/18 04:41:55;;;;;;;5.77;5.67;;;9.10;99.90;;;;;;4878293;29;20491;-79
2022/11/18 04:44:24;;;;;;;5.10;5.00;;;9.00;99.90;;;;;;4881712;29;20480;-79
2022/11/18 04:46:52;;;;;;;5.10;5.00;;;9.00;1.00;;;;;;4876329;29;20494;-79
2022/11/18 04:49:22;;;;;;;5.20;5.10;;;9.10;99.90;;;;;;4876181;29;20469;-79
2022/11/18 04:51:51;;;;;;;5.10;5.00;;;9.00;99.90;;;;;;4877181;29;20475;-80
2022/11/18 04:54:20;;;;;;;5.20;5.00;;;9.00;1.00;;;;;;4875801;29;20481;-79
2022/11/18 04:56:49;;;;;;;5.00;4.90;;;9.00;1.00;;;;;;4879060;29;20461;-79
2022/11/18 04:59:20;;;;;;;4.67;4.57;;;9.00;1.00;;;;;;4882754;29;20525;-78
2022/11/18 05:01:49;;;;;;;5.30;5.10;;;9.10;1.00;;;;;;4877904;29;20899;-79
2022/11/18 05:04:19;;;;;;;4.70;4.60;;;9.20;99.90;;;;;;4881010;29;20469;-78
2022/11/18 05:06:49;;;;;;;4.70;4.60;;;9.20;99.90;;;;;;4870120;29;20478;-78
2022/11/18 05:09:17;;;;;;;4.97;4.87;;;9.20;51.90;;;;;;4879297;29;20470;-79
2022/11/18 05:14:32;;;;;;;4.90;4.80;;;9.50;99.90;;;;;;4879572;29;20467;-78
2022/11/18 05:17:02;;;;;;;4.60;4.50;;;9.40;99.90;;;;;;4878389;29;20478;-79
2022/11/18 05:19:30;;;;;;;4.90;4.80;;;9.30;99.90;;;;;;4877682;29;20474;-80
2022/11/18 05:22:00;;;;;;;4.70;4.60;;;9.30;79.60;;;;;;4878944;29;20993;-78
2022/11/18 05:24:28;;;;;;;4.70;4.60;;;9.40;1.00;;;;;;4878441;29;20519;-79
2022/11/18 05:26:56;;;;;;;4.90;4.80;;;9.40;99.90;;;;;;4880925;29;20482;-79
2022/11/18 05:29:24;;;;;;;4.90;4.80;;;9.20;99.90;;;;;;4875581;29;20451;-79
2022/11/18 05:31:52;;;;;;;4.60;4.50;;;9.00;99.90;;;;;;4879425;29;20478;-81
2022/11/18 05:34:21;;;;;;;5.10;5.00;;;9.00;1.00;;;;;;4881083;29;20495;-79
2022/11/18 05:36:49;;;;;;;5.00;4.90;;;8.90;30.00;;;;;;4879932;29;20458;-80
2022/11/18 05:39:18;;;;;;;4.70;4.60;;;9.00;99.90;;;;;;4881392;29;20465;-80
2022/11/18 05:44:32;;;;;;;5.03;4.93;;;9.20;1.00;;;;;;4867550;29;20524;-79
2022/11/18 05:47:00;;;;;;;4.70;4.60;;;9.30;99.90;;;;;;4882789;29;20519;-79
2022/11/18 05:49:28;;;;;;;5.30;5.10;;;9.30;99.90;;;;;;4879535;29;20469;-79
2022/11/18 05:51:56;;;;;;;4.90;4.80;;;9.20;99.90;;;;;;4880426;29;20486;-78
2022/11/18 05:54:27;;;;;;;4.60;4.50;;;9.30;99.90;;;;;;4879724;29;20553;-79
2022/11/18 05:56:55;;;;;;;5.27;5.17;;;9.30;99.90;;;;;;4880319;29;20455;-80
2022/11/18 05:59:24;;;;;;;5.30;5.20;;;9.30;99.90;;;;;;4880787;29;20958;-81
2022/11/18 06:01:57;;;;;;;5.50;5.40;;;9.20;99.90;;;;;;4876128;29;20496;-79
2022/11/18 06:04:30;;;;;;;4.97;4.87;;;9.30;99.90;;;;;;4872031;29;20595;-80
2022/11/18 06:07:03;;;;;;;5.40;5.30;;;9.30;99.90;;;;;;4879008;29;20477;-80
2022/11/18 06:09:37;;;;;;;4.90;4.80;;;9.10;99.90;;;;;;4881905;29;20470;-80
2022/11/18 06:12:07;;;;;;;5.13;5.03;;;9.10;1.00;;;;;;4883201;29;20541;-79
2022/11/18 06:14:42;;;;;;;5.33;5.23;;;9.20;99.90;;;;;;4884202;29;20457;-80
2022/11/18 06:17:16;;;;;;;5.70;5.50;;;9.20;1.00;;;;;;4877801;29;20464;-80
2022/11/18 06:19:44;;;;;;;5.73;5.63;;;9.10;1.00;;;;;;4890479;29;20530;-79
2022/11/18 06:22:13;;;;;;;5.40;5.30;;;9.10;99.90;;;;;;4878181;29;20552;-81
2022/11/18 06:24:43;;;;;;;5.53;5.43;;;9.10;1.00;;;;;;4876385;29;20481;-80
2022/11/18 06:27:12;;;;;;;5.30;5.20;;;9.20;38.70;;;;;;4880961;29;20472;-79
2022/11/18 06:29:41;;;;;;;5.00;4.90;;;9.30;99.90;;;;;;4887870;29;21150;-79
2022/11/18 06:32:09;;;;;;;4.63;4.53;;;9.20;99.90;;;;;;4879289;29;20495;-80
2022/11/18 06:34:38;;;;;;;4.90;4.80;;;9.30;29.80;;;;;;4880212;29;20463;-80
2022/11/18 06:37:16;;;;;;;4.80;4.70;;;9.30;44.30;;;;;;4880488;29;20477;-81
2022/11/18 06:39:46;;;;;;;4.97;4.87;;;9.20;99.90;;;;;;4882229;29;20492;-81
2022/11/18 06:43:37;;;;;;;5.40;5.30;;;9.20;99.90;;;;;;4879107;29;20482;-80
2022/11/18 06:45:02;;;;;;;5.20;5.00;;;9.20;99.90;;;;;;4879398;29;20484;-81
2022/11/18 06:47:31;;;;;;;5.30;5.20;;;9.10;31.90;;;;;;4880907;29;20690;-79
2022/11/18 06:49:59;;;;;;;5.30;5.20;;;9.00;99.90;;;;;;4881735;29;20464;-81
2022/11/18 06:52:27;;;;;;;5.20;5.10;;;9.20;1.00;;;;;;4878748;29;20492;-80
2022/11/18 06:54:57;;;;;;;5.20;5.10;;;9.20;99.90;;;;;;4884932;29;20461;-80
2022/11/18 06:57:25;;;;;;;5.40;5.10;;;9.10;99.90;;;;;;4884190;29;20458;-80
2022/11/18 06:59:53;;;;;;;5.70;5.50;;;9.10;1.00;;;;;;4883099;29;20463;-81
2022/11/18 07:02:28;;;;;;;5.00;4.90;;;9.20;1.00;;;;;;4883676;29;20506;-80
2022/11/18 07:04:57;;;;;;;5.10;5.00;;;9.20;99.90;;;;;;4879949;29;20458;-80
2022/11/18 07:07:25;;;;;;;5.27;5.17;;;9.20;99.90;;;;;;4880938;29;21018;-81
2022/11/18 07:09:53;;;;;;;5.50;5.30;;;9.30;99.90;;;;;;4883882;29;20470;-80
2022/11/18 07:12:23;;;;;;;5.17;5.07;;;9.10;1.00;;;;;;4883191;29;21244;-81
2022/11/18 07:14:51;;;;;;;5.57;5.20;;;9.20;99.90;;;;;;4882444;29;20497;-81
2022/11/18 07:17:19;;;;;;;5.20;5.03;;;9.00;1.00;;;;;;4882871;29;20980;-81
2022/11/18 07:19:48;;;;;;;5.40;5.20;;;9.10;1.00;;;;;;4883668;29;20471;-80
2022/11/18 07:22:16;;;;;;;5.10;5.00;;;9.20;1.00;;;;;;4882476;29;20569;-77
2022/11/18 07:24:44;;;;;;;7.97;7.47;;;9.20;1.00;;;;;;4882619;29;20494;-80
2022/11/18 07:27:12;;;;;;;5.37;5.27;;;9.20;99.90;;;;;;4881761;29;20882;-80
2022/11/18 07:29:42;;;;;;;5.40;5.30;;;9.30;99.90;;;;;;4880352;29;20476;-80
2022/11/18 07:32:10;;;;;;;5.43;5.33;;;9.30;99.90;;;;;;4882327;29;20495;-80
2022/11/18 07:34:38;;;;;;;5.20;5.10;;;9.40;99.90;;;;;;4883328;29;20469;-80
2022/11/18 07:37:06;;;;;;;5.50;5.30;;;9.30;99.90;;;;;;4886101;29;20546;-80
2022/11/18 07:39:35;;;;;;;5.40;5.30;;;9.30;99.90;;;;;;4881131;29;20988;-81
2022/11/18 07:42:03;;;;;;;5.80;5.60;;;9.20;99.90;;;;;;4881884;29;20872;-80
2022/11/18 07:44:31;;;;;;;5.20;5.10;;;9.30;1.00;;;;;;4886569;29;20651;-81
2022/11/18 07:47:01;;;;;;;7.57;7.20;;;9.40;1.00;;;;;;4886273;29;20491;-81
2022/11/18 07:49:29;;;;;;;5.90;5.80;;;9.30;99.90;;;;;;4884741;29;20455;-81
2022/11/18 07:51:57;;;;;;;5.90;5.80;;;9.30;99.90;;;;;;4882510;29;20492;-80
2022/11/18 07:54:25;;;;;;;6.00;5.90;;;9.30;1.00;;;;;;4883289;29;20486;-79
2022/11/18 07:56:54;;;;;;;6.37;6.07;;;9.20;99.90;;;;;;4877163;29;20471;-78
2022/11/18 07:59:22;;;;;;;6.40;6.20;;;9.30;99.90;;;;;;4886368;29;20524;-79
2022/11/18 08:01:50;;;;;;;5.73;5.63;;;9.40;99.90;;;;;;4880849;29;20474;-80
2022/11/18 08:04:20;;;;;;;6.30;6.10;;;9.30;96.00;;;;;;4884596;29;20470;-80
2022/11/18 08:06:48;;;;;;;6.37;6.27;;;9.20;1.00;;;;;;4886851;29;20474;-80
2022/11/18 08:09:16;;;;;;;5.90;5.80;;;9.30;99.90;;;;;;4878461;29;20458;-80
2022/11/18 08:11:44;;;;;;;5.93;5.83;;;9.20;99.90;;;;;;4882289;29;20479;-80
2022/11/18 08:14:13;;;;;;;5.90;5.80;;;9.30;1.00;;;;;;4878967;29;20557;-80
2022/11/18 08:16:41;;;;;;;6.40;6.20;;;9.20;99.90;;;;;;4881626;29;20842;-79
2022/11/18 08:19:09;;;;;;;6.93;6.63;;;9.20;99.90;;;;;;4880833;29;20967;-80
2022/11/18 08:21:39;;;;;;;6.10;5.90;;;9.20;99.90;;;;;;4879499;29;21111;-80
2022/11/18 08:24:10;;;;;;;6.40;6.30;;;9.40;1.00;;;;;;4881248;29;20456;-82
2022/11/18 08:26:38;;;;;;;6.90;6.60;;;9.30;1.00;;;;;;4881960;29;20463;-82
2022/11/18 08:29:06;;;;;;;5.90;5.70;;;9.40;99.90;;;;;;4882313;29;20494;-83
2022/11/18 08:31:34;;;;;;;6.13;6.00;;;9.30;99.90;;;;;;4886065;29;20485;-81
2022/11/18 08:34:04;;;;;;;5.97;5.87;;;9.40;1.00;;;;;;4883013;29;20465;-80
2022/11/18 08:36:35;;;;;;;6.73;6.50;;;9.40;99.90;;;;;;4881120;29;20485;-79
2022/11/18 08:39:07;;;;;;;6.70;6.60;;;9.40;1.00;;;;;;4884551;29;20454;-80
2022/11/18 08:41:38;;;;;;;6.60;6.43;;;9.40;99.90;;;;;;4877776;29;20490;-79
2022/11/18 08:44:08;;;;;;;6.80;6.60;;;9.40;1.00;;;;;;4882894;29;20459;-80
2022/11/18 08:46:36;;;;;;;6.60;6.50;;;9.60;67.60;;;;;;4894318;29;20480;-80
2022/11/18 08:49:05;;;;;;;6.97;6.80;;;9.60;1.00;;;;;;4880748;29;20483;-80
2022/11/18 08:51:33;;;;;;;7.27;6.97;;;9.60;57.50;;;;;;4878403;29;20493;-79
2022/11/18 08:54:01;;;;;;;7.40;7.10;;;9.60;1.00;;;;;;4876742;29;20468;-79
2022/11/18 08:56:31;;;;;;;6.60;6.50;;;9.60;99.90;;;;;;4880786;29;20550;-79
2022/11/18 08:58:59;;;;;;;7.70;7.50;;;9.50;1.00;;;;;;4878649;29;20457;-79
2022/11/18 09:01:27;;;;;;;7.43;7.23;;;9.50;99.90;;;;;;4876333;29;20486;-79
2022/11/18 09:03:56;;;;;;;7.20;7.00;;;9.40;99.90;;;;;;4878998;29;20463;-79
2022/11/18 09:06:25;;;;;;;7.40;7.20;;;9.40;99.90;;;;;;4879128;29;20459;-80
2022/11/18 09:08:53;;;;;;;7.17;7.07;;;9.40;99.90;;;;;;4876066;29;20479;-80
2022/11/18 09:11:23;;;;;;;7.67;7.47;;;9.40;99.90;;;;;;4877849;29;20565;-79
2022/11/18 09:13:55;;;;;;;7.13;6.80;;;9.50;1.00;;;;;;4877537;29;20462;-80
2022/11/18 09:16:43;;;;;;;7.30;7.10;;;9.50;1.00;;;;;;4881206;29;21276;-79
2022/11/18 09:19:12;;;;;;;7.53;7.43;;;9.60;35.00;;;;;;4879076;29;20493;-79
2022/11/18 09:22:00;;;;;;;7.77;7.40;;;9.40;1.00;;;;;;4873898;29;20471;-79
2022/11/18 09:24:28;;;;;;;7.50;7.10;;;9.40;99.90;;;;;;4875186;29;20496;-80
2022/11/18 09:26:57;;;;;;;7.40;7.20;;;9.50;1.00;;;;;;4875306;29;21026;-79
2022/11/18 09:29:26;;;;;;;7.27;7.10;;;9.60;99.90;;;;;;4874881;29;20482;-79
2022/11/18 09:31:55;;;;;;;7.10;7.00;;;9.70;1.00;;;;;;4877344;29;20487;-80
2022/11/18 09:34:24;;;;;;;6.90;6.80;;;9.70;99.90;;;;;;4880332;29;21023;-80
2022/11/18 09:36:54;;;;;;;6.70;6.60;;;9.70;99.90;;;;;;4876751;29;20591;-79
2022/11/18 09:39:24;;;;;;;7.17;7.00;;;9.50;1.00;;;;;;4876497;29;20462;-80
2022/11/18 09:42:01;;;;;;;7.03;6.93;;;9.50;99.90;;;;;;4878383;29;20490;-80
2022/11/18 09:44:50;;;;;;;7.50;7.33;;;9.60;99.90;;;;;;4875477;29;20466;-80
2022/11/18 09:47:27;;;;;;;8.43;8.07;;;9.60;99.90;;;;;;4859771;29;20498;-79
2022/11/18 09:49:57;;;;;;;7.37;7.07;;;9.60;99.90;;;;;;4858672;29;20456;-79
2022/11/18 09:52:29;;;;;;;7.10;6.90;;;9.60;1.00;;;;;;4862918;29;20488;-79
2022/11/18 09:55:11;;;;;;;7.60;7.30;;;9.60;1.00;;;;;;4857801;29;20467;-79
2022/11/18 09:57:43;;;;;;;8.50;8.07;;;9.60;99.90;;;;;;4858971;29;20455;-80
2022/11/18 10:00:17;;;;;;;7.70;7.50;;;9.60;99.90;;;;;;4858078;29;20475;-80
2022/11/18 10:02:52;;;;;;;7.63;7.40;;;9.60;1.00;;;;;;4862995;29;20484;-79
2022/11/18 10:05:23;;;;;;;8.10;7.80;;;9.70;23.00;;;;;;4864777;29;20452;-80
2022/11/18 10:08:03;;;;;;;7.70;7.50;;;9.80;1.00;;;;;;4865865;29;20461;-79
2022/11/18 10:10:41;;;;;;;8.17;7.97;;;9.80;99.90;;;;;;4865017;29;20462;-79
2022/11/18 10:13:19;;;;;;;9.30;9.00;;;9.80;99.90;;;;;;4866223;29;20454;-79
2022/11/18 10:15:59;;;;;;;8.83;8.60;;;10.00;99.90;;;;;;4867436;29;20457;-80
2022/11/18 10:18:32;;;;;;;9.03;8.73;;;10.10;7.70;;;;;;4869252;29;20906;-79
2022/11/18 10:21:29;;;;;;;9.30;8.90;;;10.10;1.00;;;;;;4863602;29;20488;-79
2022/11/18 10:24:02;;;;;;;9.00;8.70;;;10.00;99.90;;;;;;4866554;29;20916;-80
2022/11/18 10:26:34;;;;;;;9.30;9.00;;;10.10;1.00;;;;;;4866818;29;20470;-79
2022/11/18 10:29:06;;;;;;;9.80;9.50;;;10.20;29.60;;;;;;4865771;29;20515;-79
2022/11/18 10:31:38;;;;;;;9.90;9.60;;;10.20;1.00;;;;;;4862898;29;20491;-79
2022/11/18 10:34:10;;;;;;;9.20;9.00;;;10.20;41.80;;;;;;4859098;29;20467;-78
2022/11/18 10:36:38;;;;;;;8.90;8.70;;;10.30;1.00;;;;;;4863984;29;21063;-80
2022/11/18 10:39:09;;;;;;;9.70;9.50;;;10.40;1.00;;;;;;4860983;29;20845;-79
2022/11/18 10:41:42;;;;;;;10.00;9.70;;;10.60;1.00;;;;;;4861866;29;20509;-77
2022/11/18 10:44:35;;;;;;;10.10;9.80;;;10.60;1.00;;;;;;4862018;29;20460;-79
2022/11/18 10:47:25;;;;;;;10.83;10.53;;;10.70;99.90;;;;;;4862658;29;20891;-80
2022/11/18 10:49:55;;;;;;;10.30;10.10;;;10.70;99.90;;;;;;4859403;29;20503;-79
2022/11/18 10:52:24;;;;;;;10.93;10.63;;;10.70;16.00;;;;;;4859540;29;20498;-79
2022/11/18 10:55:22;;;;;;;10.17;9.97;;;10.60;1.00;;;;;;4860578;29;20458;-80
2022/11/18 10:57:58;;;;;;;10.97;10.50;;;10.50;95.80;;;;;;4862973;29;20471;-79
2022/11/18 11:00:41;;;;;;;10.10;9.90;;;10.60;1.00;;;;;;4860556;29;20464;-78
2022/11/18 11:03:33;;;;;;;10.00;9.80;;;10.40;99.90;;;;;;4860577;29;21456;-80
2022/11/18 11:06:31;;;;;;;9.70;9.50;;;10.50;99.90;;;;;;4860661;29;20468;-79
2022/11/18 11:09:06;;;;;;;9.20;9.00;;;10.50;99.90;;;;;;4860118;29;20480;-78
2022/11/18 11:11:36;;;;;;;9.37;9.20;;;10.60;55.10;;;;;;4860519;29;20855;-79
2022/11/18 11:14:22;;;;;;;8.93;8.70;;;10.60;99.90;;;;;;4861277;29;20464;-79
2022/11/18 11:16:59;;;;;;;8.87;8.77;;;10.50;1.00;;;;;;4864657;29;20469;-79
2022/11/18 11:19:47;;;;;;;9.33;9.10;;;10.60;1.00;;;;;;4864250;29;20466;-79
2022/11/18 11:22:16;;;;;;;8.87;8.50;;;10.90;99.90;;;;;;4861680;29;20496;-79
2022/11/18 11:24:45;;;;;;;8.80;8.60;;;10.90;99.90;;;;;;4862063;29;20517;-80
2022/11/18 11:27:32;;;;;;;8.93;8.73;;;10.80;1.00;;;;;;4863512;29;20471;-79
2022/11/18 11:30:22;;;;;;;8.20;8.00;;;10.80;1.00;;;;;;4860671;29;20493;-79
2022/11/18 11:33:22;;;;;;;9.17;8.97;;;10.70;99.90;;;;;;4863223;29;20483;-80
2022/11/18 11:36:15;;;;;;;9.10;8.90;;;10.80;1.00;;;;;;4865277;29;20827;-79
2022/11/18 11:38:55;;;;;;;9.40;9.13;;;10.80;99.90;;;;;;4862001;29;20459;-79
2022/11/18 11:41:40;;;;;;;9.70;9.40;;;10.90;10.80;;;;;;4858458;29;21156;-80
2022/11/18 11:44:34;;;;;;;8.90;8.77;;;10.80;1.00;;;;;;4858679;29;20481;-79
2022/11/18 11:50:02;;;;;;;7.90;7.80;;;10.80;1.00;;;;;;4864372;29;20515;-79
2022/11/18 11:52:46;;;;;;;8.30;8.00;;;10.90;1.00;;;;;;4864860;29;21401;-79
2022/11/18 11:55:22;;;;;;;9.10;8.80;;;11.00;1.00;;;;;;4858549;29;21027;-79
2022/11/18 11:58:16;;;;;;;8.27;8.17;;;10.90;1.00;;;;;;4861093;29;20459;-79
2022/11/18 12:00:54;;;;;;;9.50;9.20;;;10.90;1.00;;;;;;4861643;29;20462;-79
2022/11/18 12:03:42;;;;;;;8.60;8.40;;;10.90;1.00;;;;;;4865242;29;20630;-84
2022/11/18 12:06:19;;;;;;;8.67;8.47;;;11.00;1.00;;;;;;4859898;29;20975;-79
2022/11/18 12:09:03;;;;;;;8.47;8.27;;;11.00;99.90;;;;;;4860599;29;20465;-79
2022/11/18 12:11:38;;;;;;;8.90;8.50;;;10.90;99.90;;;;;;4869184;29;20491;-79
2022/11/18 12:14:12;;;;;;;8.27;7.90;;;11.00;99.90;;;;;;4867798;29;20463;-79
2022/11/18 12:16:47;;;;;;;7.93;7.67;;;10.90;99.90;;;;;;4865965;29;20509;-79
2022/11/18 12:19:18;;;;;;;8.00;7.70;;;11.10;99.90;;;;;;4864428;29;20444;-81
2022/11/18 12:22:02;;;;;;;7.50;7.20;;;11.20;99.90;;;;;;4867951;29;20494;-79
2022/11/18 12:24:35;;;;;;;7.20;7.10;;;11.00;99.90;;;;;;4870246;29;20483;-79
2022/11/18 12:27:13;;;;;;;7.80;7.60;;;11.00;99.90;;;;;;4868834;29;20474;-79
2022/11/18 12:29:58;;;;;;;7.83;7.53;;;10.90;99.90;;;;;;4864190;29;20490;-79
2022/11/18 12:32:30;;;;;;;7.40;7.23;;;10.90;99.90;;;;;;4855172;29;20496;-76
2022/11/18 12:35:01;;;;;;;7.70;7.30;;;10.80;99.90;;;;;;4860610;29;20556;-80
2022/11/18 12:37:43;;;;;;;7.07;6.97;;;10.70;99.90;;;;;;4862329;29;20467;-79
2022/11/18 12:40:35;;;;;;;7.13;7.03;;;10.60;99.90;;;;;;4860781;29;20983;-78
2022/11/18 12:45:58;;;;;;;7.10;6.90;;;10.70;99.90;;;;;;4858971;29;20564;-79
2022/11/18 12:48:44;;;;;;;6.60;6.50;;;10.70;99.90;;;;;;4860391;29;20463;-79
2022/11/18 12:51:41;;;;;;;7.20;6.90;;;10.90;99.90;;;;;;4859947;29;20624;-78
2022/11/18 12:54:35;;;;;;;7.33;7.10;;;11.30;99.90;;;;;;4862313;29;20547;-79
2022/11/18 12:57:15;;;;;;;7.13;7.03;;;11.50;99.90;;;;;;4862814;29;20469;-78
2022/11/18 12:59:43;;;;;;;7.20;7.00;;;11.60;99.90;;;;;;4864367;29;20455;-79
2022/11/18 13:02:23;;;;;;;7.20;6.90;;;11.90;55.10;;;;;;4867348;29;21125;-80
2022/11/18 13:05:06;;;;;;;7.10;6.77;;;12.00;1.00;;;;;;4865404;29;20541;-79
2022/11/18 13:10:32;;;;;;;6.43;6.03;;;11.70;1.00;;;;;;4861647;29;20493;-79
2022/11/18 13:13:02;;;;;;;6.47;6.27;;;11.80;1.00;;;;;;4858281;29;21055;-80
2022/11/18 13:18:18;;;;;;;6.47;6.10;;;11.70;1.00;;;;;;4859537;29;20885;-80
2022/11/18 13:20:55;;;;;;;5.67;5.47;;;11.60;1.00;;;;;;4859398;29;20476;-80
2022/11/18 13:26:20;;;;;;;5.20;5.00;;;11.30;1.00;;;;;;4865948;29;20469;-80
2022/11/18 13:29:14;;;;;;;5.30;5.20;;;11.30;1.00;;;;;;4859395;29;20506;-80
2022/11/18 13:31:52;;;;;;;5.13;4.93;;;11.20;1.00;;;;;;4859399;29;20492;-80
2022/11/18 13:34:22;;;;;;;5.27;5.07;;;11.20;1.00;;;;;;4857272;29;20468;-79
2022/11/18 13:36:52;;;;;;;4.60;4.50;;;11.10;1.00;;;;;;4862781;29;22833;-79
2022/11/18 13:39:23;;;;;;;4.80;4.60;;;11.00;1.00;;;;;;4862686;29;20464;-79
2022/11/18 13:42:02;;;;;;;4.97;4.80;;;10.90;1.00;;;;;;4864666;29;20501;-79
2022/11/18 13:44:33;;;;;;;4.50;4.30;;;11.00;1.00;;;;;;4861630;29;20503;-80
2022/11/18 13:47:09;;;;;;;4.37;4.27;;;10.90;1.00;;;;;;4864984;29;20990;-79
2022/11/18 13:49:47;;;;;;;4.77;4.57;;;11.00;1.00;;;;;;4867117;29;20460;-79
2022/11/18 13:52:24;;;;;;;5.13;4.63;;;11.10;1.00;;;;;;4869909;29;20494;-79
2022/11/18 13:54:53;;;;;;;4.80;4.70;;;11.00;1.00;;;;;;4869669;29;20502;-80
2022/11/18 13:57:24;;;;;;;4.50;4.40;;;11.10;1.00;;;;;;4864178;29;20701;-79
2022/11/18 13:59:55;;;;;;;4.73;4.60;;;11.10;1.00;;;;;;4864183;29;20468;-77